sensor_id;sensor_type;location;lat;lon;timestamp;pressure;altitude;pressure_sealevel;temperature;humidity
73692;BME280;61996;49.910;35.562;2023-03-11T00:00:49;98392.06;;;20.65;39.55
73692;BME280;61996;49.910;35.562;2023-03-11T00:03:52;98386.09;;;20.63;39.31
73692;BME280;61996;49.910;35.562;2023-03-11T00:06:54;98384.72;;;20.67;39.17
73692;BME280;61996;49.910;35.562;2023-03-11T00:10:02;98379.19;;;20.69;39.11
73692;BME280;61996;49.910;35.562;2023-03-11T00:13:05;98379.56;;;20.66;39.21
73692;BME280;61996;49.910;35.562;2023-03-11T00:16:08;98373.38;;;20.65;39.11
73692;BME280;61996;49.910;35.562;2023-03-11T00:19:11;98366.38;;;20.64;39.04
73692;BME280;61996;49.910;35.562;2023-03-11T00:22:14;98361.84;;;20.65;39.10
73692;BME280;61996;49.910;35.562;2023-03-11T00:25:19;98364.19;;;20.68;38.63
73692;BME280;61996;49.910;35.562;2023-03-11T00:28:24;98357.00;;;20.68;38.93
73692;BME280;61996;49.910;35.562;2023-03-11T00:31:27;98338.19;;;20.62;39.07
73692;BME280;61996;49.910;35.562;2023-03-11T00:34:33;98334.31;;;20.64;38.77
73692;BME280;61996;49.910;35.562;2023-03-11T00:37:35;98331.00;;;20.62;38.87
73692;BME280;61996;49.910;35.562;2023-03-11T00:40:41;98337.56;;;20.60;39.04
73692;BME280;61996;49.910;35.562;2023-03-11T00:43:44;98322.69;;;20.57;38.95
73692;BME280;61996;49.910;35.562;2023-03-11T00:46:49;98306.69;;;20.57;38.99
73692;BME280;61996;49.910;35.562;2023-03-11T00:49:52;98314.06;;;20.55;38.95
73692;BME280;61996;49.910;35.562;2023-03-11T00:52:57;98308.72;;;20.55;38.82
73692;BME280;61996;49.910;35.562;2023-03-11T00:56:06;98315.06;;;20.54;38.82
73692;BME280;61996;49.910;35.562;2023-03-11T00:59:09;98309.44;;;20.49;39.00
73692;BME280;61996;49.910;35.562;2023-03-11T01:02:12;98300.78;;;20.47;38.87
73692;BME280;61996;49.910;35.562;2023-03-11T01:05:16;98304.91;;;20.49;38.98
73692;BME280;61996;49.910;35.562;2023-03-11T01:08:19;98300.13;;;20.45;38.89
73692;BME280;61996;49.910;35.562;2023-03-11T01:11:23;98290.09;;;20.47;38.92
73692;BME280;61996;49.910;35.562;2023-03-11T01:14:27;98279.59;;;20.45;38.88
73692;BME280;61996;49.910;35.562;2023-03-11T01:17:32;98281.25;;;20.46;38.86
73692;BME280;61996;49.910;35.562;2023-03-11T01:20:36;98275.72;;;20.48;38.61
73692;BME280;61996;49.910;35.562;2023-03-11T01:23:39;98279.41;;;20.47;38.68
73692;BME280;61996;49.910;35.562;2023-03-11T01:26:43;98275.72;;;20.48;38.66
73692;BME280;61996;49.910;35.562;2023-03-11T01:29:46;98271.72;;;20.44;38.74
73692;BME280;61996;49.910;35.562;2023-03-11T01:32:49;98280.75;;;20.43;38.80
73692;BME280;61996;49.910;35.562;2023-03-11T01:35:52;98272.72;;;20.43;38.73
73692;BME280;61996;49.910;35.562;2023-03-11T01:38:55;98281.13;;;20.40;38.78
73692;BME280;61996;49.910;35.562;2023-03-11T01:42:00;98281.13;;;20.40;38.61
73692;BME280;61996;49.910;35.562;2023-03-11T01:45:08;98270.16;;;20.35;38.81
73692;BME280;61996;49.910;35.562;2023-03-11T01:48:26;98267.28;;;20.36;38.69
73692;BME280;61996;49.910;35.562;2023-03-11T01:51:30;98268.50;;;20.34;38.74
73692;BME280;61996;49.910;35.562;2023-03-11T01:54:34;98267.84;;;20.32;38.69
73692;BME280;61996;49.910;35.562;2023-03-11T01:57:40;98262.13;;;20.35;38.68
73692;BME280;61996;49.910;35.562;2023-03-11T02:00:44;98250.25;;;20.37;38.47
73692;BME280;61996;49.910;35.562;2023-03-11T02:03:51;98252.47;;;20.34;38.59
73692;BME280;61996;49.910;35.562;2023-03-11T02:06:55;98255.59;;;20.37;38.22
73692;BME280;61996;49.910;35.562;2023-03-11T02:09:58;98256.97;;;20.33;38.52
73692;BME280;61996;49.910;35.562;2023-03-11T02:13:02;98259.66;;;20.33;38.46
73692;BME280;61996;49.910;35.562;2023-03-11T02:16:07;98245.28;;;20.34;38.46
73692;BME280;61996;49.910;35.562;2023-03-11T02:19:11;98256.97;;;20.33;38.37
73692;BME280;61996;49.910;35.562;2023-03-11T02:22:20;98246.84;;;20.29;38.41
73692;BME280;61996;49.910;35.562;2023-03-11T02:25:24;98236.84;;;20.31;38.30
73692;BME280;61996;49.910;35.562;2023-03-11T02:28:31;98241.31;;;20.30;38.43
73692;BME280;61996;49.910;35.562;2023-03-11T02:31:37;98227.31;;;20.28;38.46
73692;BME280;61996;49.910;35.562;2023-03-11T02:34:43;98224.03;;;20.26;38.42
73692;BME280;61996;49.910;35.562;2023-03-11T02:37:46;98224.03;;;20.26;38.52
73692;BME280;61996;49.910;35.562;2023-03-11T02:40:50;98219.50;;;20.26;38.44
73692;BME280;61996;49.910;35.562;2023-03-11T02:43:55;98233.88;;;20.25;38.51
73692;BME280;61996;49.910;35.562;2023-03-11T02:46:59;98217.19;;;20.23;38.53
73692;BME280;61996;49.910;35.562;2023-03-11T02:50:03;98209.19;;;20.23;38.53
73692;BME280;61996;49.910;35.562;2023-03-11T02:53:06;98202.19;;;20.22;38.58
73692;BME280;61996;49.910;35.562;2023-03-11T02:56:09;98211.22;;;20.21;38.60
73692;BME280;61996;49.910;35.562;2023-03-11T02:59:14;98202.19;;;20.22;38.67
73692;BME280;61996;49.910;35.562;2023-03-11T03:02:17;98207.72;;;20.21;38.63
73692;BME280;61996;49.910;35.562;2023-03-11T03:05:20;98195.38;;;20.20;38.52
73692;BME280;61996;49.910;35.562;2023-03-11T03:08:23;98198.25;;;20.18;38.62
73692;BME280;61996;49.910;35.562;2023-03-11T03:11:26;98187.56;;;20.18;38.61
73692;BME280;61996;49.910;35.562;2023-03-11T03:14:30;98181.94;;;20.13;38.74
73692;BME280;61996;49.910;35.562;2023-03-11T03:17:33;98170.63;;;20.11;38.55
73692;BME280;61996;49.910;35.562;2023-03-11T03:20:38;98160.97;;;20.10;38.70
73692;BME280;61996;49.910;35.562;2023-03-11T03:23:41;98167.13;;;20.11;38.70
73692;BME280;61996;49.910;35.562;2023-03-11T03:26:43;98157.47;;;20.10;38.56
73692;BME280;61996;49.910;35.562;2023-03-11T03:29:48;98155.63;;;20.10;38.62
73692;BME280;61996;49.910;35.562;2023-03-11T03:32:51;98154.59;;;20.11;38.49
73692;BME280;61996;49.910;35.562;2023-03-11T03:35:53;98164.44;;;20.11;38.45
73692;BME280;61996;49.910;35.562;2023-03-11T03:38:56;98154.13;;;20.08;38.66
73692;BME280;61996;49.910;35.562;2023-03-11T03:42:00;98153.78;;;20.11;38.55
73692;BME280;61996;49.910;35.562;2023-03-11T03:45:05;98158.19;;;20.18;37.94
73692;BME280;61996;49.910;35.562;2023-03-11T03:48:11;98154.31;;;20.21;37.92
73692;BME280;61996;49.910;35.562;2023-03-11T03:51:14;98151.47;;;20.37;37.60
73692;BME280;61996;49.910;35.562;2023-03-11T03:54:17;98163.19;;;20.51;37.22
73692;BME280;61996;49.910;35.562;2023-03-11T03:57:20;98162.84;;;20.54;37.43
73692;BME280;61996;49.910;35.562;2023-03-11T04:00:24;98168.06;;;20.62;37.34
73692;BME280;61996;49.910;35.562;2023-03-11T04:03:27;98148.25;;;20.71;37.06
73692;BME280;61996;49.910;35.562;2023-03-11T04:06:30;98147.06;;;20.74;37.14
73692;BME280;61996;49.910;35.562;2023-03-11T04:09:33;98138.59;;;20.70;37.10
73692;BME280;61996;49.910;35.562;2023-03-11T04:12:36;98123.84;;;20.74;37.31
73692;BME280;61996;49.910;35.562;2023-03-11T04:15:40;98132.59;;;20.68;37.18
73692;BME280;61996;49.910;35.562;2023-03-11T04:18:43;98121.28;;;20.66;37.28
73692;BME280;61996;49.910;35.562;2023-03-11T04:21:45;98113.28;;;20.66;37.48
73692;BME280;61996;49.910;35.562;2023-03-11T04:24:49;98117.13;;;20.64;37.51
73692;BME280;61996;49.910;35.562;2023-03-11T04:27:51;98123.88;;;20.60;37.38
73692;BME280;61996;49.910;35.562;2023-03-11T04:30:56;98129.38;;;20.58;37.49
73692;BME280;61996;49.910;35.562;2023-03-11T04:33:58;98124.44;;;20.55;37.60
73692;BME280;61996;49.910;35.562;2023-03-11T04:37:01;98119.47;;;20.52;37.69
73692;BME280;61996;49.910;35.562;2023-03-11T04:40:05;98128.66;;;20.49;37.79
73692;BME280;61996;49.910;35.562;2023-03-11T04:43:09;98117.34;;;20.47;37.48
73692;BME280;61996;49.910;35.562;2023-03-11T04:46:13;98127.84;;;20.49;37.79
73692;BME280;61996;49.910;35.562;2023-03-11T04:49:17;98120.22;;;20.46;37.68
73692;BME280;61996;49.910;35.562;2023-03-11T04:52:20;98114.38;;;20.42;37.87
73692;BME280;61996;49.910;35.562;2023-03-11T04:55:23;98111.19;;;20.47;37.88
73692;BME280;61996;49.910;35.562;2023-03-11T04:58:26;98116.22;;;20.42;37.89
73692;BME280;61996;49.910;35.562;2023-03-11T05:01:30;98111.88;;;20.41;37.96
73692;BME280;61996;49.910;35.562;2023-03-11T05:04:33;98106.94;;;20.38;37.92
73692;BME280;61996;49.910;35.562;2023-03-11T05:07:36;98095.59;;;20.36;37.95
73692;BME280;61996;49.910;35.562;2023-03-11T05:10:39;98096.59;;;20.35;38.04
73692;BME280;61996;49.910;35.562;2023-03-11T05:13:42;98102.97;;;20.34;37.88
73692;BME280;61996;49.910;35.562;2023-03-11T05:16:46;98110.50;;;20.30;37.99
73692;BME280;61996;49.910;35.562;2023-03-11T05:19:49;98104.34;;;20.30;37.96
73692;BME280;61996;49.910;35.562;2023-03-11T05:22:54;98109.22;;;20.26;37.98
73692;BME280;61996;49.910;35.562;2023-03-11T05:25:57;98091.19;;;20.28;37.97
73692;BME280;61996;49.910;35.562;2023-03-11T05:29:00;98090.72;;;20.24;38.01
73692;BME280;61996;49.910;35.562;2023-03-11T05:32:07;98092.75;;;20.22;38.00
73692;BME280;61996;49.910;35.562;2023-03-11T05:35:12;98101.75;;;20.21;37.90
73692;BME280;61996;49.910;35.562;2023-03-11T05:38:15;98114.28;;;20.21;37.90
73692;BME280;61996;49.910;35.562;2023-03-11T05:41:18;98095.97;;;20.18;37.93
73692;BME280;61996;49.910;35.562;2023-03-11T05:44:20;98095.16;;;20.17;37.94
73692;BME280;61996;49.910;35.562;2023-03-11T05:47:24;98098.81;;;20.16;37.83
73692;BME280;61996;49.910;35.562;2023-03-11T05:50:27;98094.34;;;20.17;38.02
73692;BME280;61996;49.910;35.562;2023-03-11T05:53:30;98096.34;;;20.15;37.96
73692;BME280;61996;49.910;35.562;2023-03-11T05:56:33;98099.00;;;20.15;38.00
73692;BME280;61996;49.910;35.562;2023-03-11T05:59:36;98101.03;;;20.13;37.89
73692;BME280;61996;49.910;35.562;2023-03-11T06:02:40;98098.56;;;20.11;38.01
73692;BME280;61996;49.910;35.562;2023-03-11T06:05:43;98093.56;;;20.08;38.09
73692;BME280;61996;49.910;35.562;2023-03-11T06:08:46;98088.22;;;20.08;38.06
73692;BME280;61996;49.910;35.562;2023-03-11T06:11:50;98084.53;;;20.09;37.98
73692;BME280;61996;49.910;35.562;2023-03-11T06:14:53;98068.72;;;20.08;37.97
73692;BME280;61996;49.910;35.562;2023-03-11T06:17:58;98066.25;;;20.06;37.97
73692;BME280;61996;49.910;35.562;2023-03-11T06:21:01;98073.63;;;20.04;38.00
73692;BME280;61996;49.910;35.562;2023-03-11T06:24:05;98064.59;;;20.05;37.92
73692;BME280;61996;49.910;35.562;2023-03-11T06:27:07;98067.25;;;20.05;38.01
73692;BME280;61996;49.910;35.562;2023-03-11T06:30:11;98066.25;;;20.06;37.99
73692;BME280;61996;49.910;35.562;2023-03-11T06:33:17;98069.94;;;20.05;37.84
73692;BME280;61996;49.910;35.562;2023-03-11T06:36:20;98056.59;;;20.05;38.00
73692;BME280;61996;49.910;35.562;2023-03-11T06:39:26;98056.59;;;20.05;37.97
73692;BME280;61996;49.910;35.562;2023-03-11T06:42:28;98051.25;;;20.05;37.88
73692;BME280;61996;49.910;35.562;2023-03-11T06:45:31;98035.44;;;20.04;37.95
73692;BME280;61996;49.910;35.562;2023-03-11T06:48:36;98042.41;;;20.05;37.94
73692;BME280;61996;49.910;35.562;2023-03-11T06:51:39;98043.59;;;20.02;37.97
73692;BME280;61996;49.910;35.562;2023-03-11T06:54:41;98051.44;;;20.04;37.93
73692;BME280;61996;49.910;35.562;2023-03-11T06:57:44;98028.41;;;20.03;37.82
73692;BME280;61996;49.910;35.562;2023-03-11T07:00:47;98040.78;;;20.04;37.87
73692;BME280;61996;49.910;35.562;2023-03-11T07:03:51;98032.94;;;20.02;37.90
73692;BME280;61996;49.910;35.562;2023-03-11T07:06:54;98019.16;;;19.98;38.04
73692;BME280;61996;49.910;35.562;2023-03-11T07:09:57;98014.34;;;19.94;37.65
73692;BME280;61996;49.910;35.562;2023-03-11T07:13:00;98018.66;;;19.95;38.07
73692;BME280;61996;49.910;35.562;2023-03-11T07:16:03;98011.13;;;19.98;37.89
73692;BME280;61996;49.910;35.562;2023-03-11T07:19:11;98021.63;;;20.00;37.97
73692;BME280;61996;49.910;35.562;2023-03-11T07:22:14;98019.97;;;19.99;38.03
73692;BME280;61996;49.910;35.562;2023-03-11T07:25:18;98020.34;;;19.96;38.08
73692;BME280;61996;49.910;35.562;2023-03-11T07:28:22;98022.00;;;19.97;38.03
73692;BME280;61996;49.910;35.562;2023-03-11T07:31:25;98025.50;;;19.97;37.96
73692;BME280;61996;49.910;35.562;2023-03-11T07:34:30;98020.78;;;19.99;37.80
73692;BME280;61996;49.910;35.562;2023-03-11T07:37:32;98033.31;;;19.99;37.70
73692;BME280;61996;49.910;35.562;2023-03-11T07:40:36;98015.66;;;19.98;37.76
73692;BME280;61996;49.910;35.562;2023-03-11T07:43:40;98022.00;;;19.97;37.90
73692;BME280;61996;49.910;35.562;2023-03-11T07:46:43;98005.31;;;19.95;37.83
73692;BME280;61996;49.910;35.562;2023-03-11T07:49:50;98010.03;;;19.93;37.83
73692;BME280;61996;49.910;35.562;2023-03-11T07:52:54;98001.00;;;19.94;37.79
73692;BME280;61996;49.910;35.562;2023-03-11T07:56:03;98005.31;;;19.95;37.80
73692;BME280;61996;49.910;35.562;2023-03-11T07:59:06;97985.00;;;19.94;37.71
73692;BME280;61996;49.910;35.562;2023-03-11T08:02:08;97983.97;;;19.95;37.78
73692;BME280;61996;49.910;35.562;2023-03-11T08:05:13;97974.72;;;19.91;37.75
73692;BME280;61996;49.910;35.562;2023-03-11T08:08:16;97976.81;;;19.95;37.72
73692;BME280;61996;49.910;35.562;2023-03-11T08:11:19;97969.81;;;19.94;37.32
73692;BME280;61996;49.910;35.562;2023-03-11T08:14:22;97952.97;;;19.94;37.71
73692;BME280;61996;49.910;35.562;2023-03-11T08:17:25;97958.72;;;19.91;37.65
73692;BME280;61996;49.910;35.562;2023-03-11T08:20:29;97963.84;;;19.92;37.44
73692;BME280;61996;49.910;35.562;2023-03-11T08:23:32;97959.53;;;19.91;37.64
73692;BME280;61996;49.910;35.562;2023-03-11T08:26:35;97946.38;;;19.90;37.60
73692;BME280;61996;49.910;35.562;2023-03-11T08:29:38;97927.53;;;19.91;37.61
73692;BME280;61996;49.910;35.562;2023-03-11T08:32:43;97927.31;;;19.93;37.53
73692;BME280;61996;49.910;35.562;2023-03-11T08:35:47;97923.84;;;19.92;37.61
73692;BME280;61996;49.910;35.562;2023-03-11T08:38:52;97923.00;;;19.92;37.65
73692;BME280;61996;49.910;35.562;2023-03-11T08:41:56;97924.66;;;19.93;37.59
73692;BME280;61996;49.910;35.562;2023-03-11T08:45:00;97913.34;;;19.91;37.58
73692;BME280;61996;49.910;35.562;2023-03-11T08:48:03;97916.66;;;19.93;37.53
73692;BME280;61996;49.910;35.562;2023-03-11T08:51:09;97913.34;;;19.91;37.45
73692;BME280;61996;49.910;35.562;2023-03-11T08:54:12;97916.56;;;19.86;37.43
73692;BME280;61996;49.910;35.562;2023-03-11T08:57:15;97913.78;;;19.94;37.53
73692;BME280;61996;49.910;35.562;2023-03-11T09:00:18;97920.16;;;19.93;37.62
73692;BME280;61996;49.910;35.562;2023-03-11T09:03:26;97924.66;;;19.93;37.67
73692;BME280;61996;49.910;35.562;2023-03-11T09:06:33;97920.34;;;19.92;37.53
73692;BME280;61996;49.910;35.562;2023-03-11T09:09:36;97920.97;;;19.94;37.60
73692;BME280;61996;49.910;35.562;2023-03-11T09:12:39;97919.31;;;19.93;37.80
73692;BME280;61996;49.910;35.562;2023-03-11T09:15:42;97915.91;;;19.99;37.23
73692;BME280;61996;49.910;35.562;2023-03-11T09:18:44;97909.34;;;20.02;37.27
73692;BME280;61996;49.910;35.562;2023-03-11T09:21:51;97917.97;;;20.18;36.98
73692;BME280;61996;49.910;35.562;2023-03-11T09:24:56;97908.84;;;20.27;36.61
73692;BME280;61996;49.910;35.562;2023-03-11T09:27:59;97920.28;;;20.43;36.42
73692;BME280;61996;49.910;35.562;2023-03-11T09:31:02;97919.00;;;20.53;36.46
73692;BME280;61996;49.910;35.562;2023-03-11T09:34:05;97919.63;;;20.56;36.49
73692;BME280;61996;49.910;35.562;2023-03-11T09:37:09;97907.91;;;20.57;36.28
73692;BME280;61996;49.910;35.562;2023-03-11T09:40:12;97907.97;;;20.63;36.30
73692;BME280;61996;49.910;35.562;2023-03-11T09:43:21;97896.91;;;20.66;36.38
73692;BME280;61996;49.910;35.562;2023-03-11T09:49:54;97890.22;;;20.77;36.20
73692;BME280;61996;49.910;35.562;2023-03-11T09:53:11;97887.19;;;20.80;35.99
73692;BME280;61996;49.910;35.562;2023-03-11T09:56:19;97880.91;;;20.94;36.00
73692;BME280;61996;49.910;35.562;2023-03-11T09:59:26;97875.41;;;21.02;36.02
73692;BME280;61996;49.910;35.562;2023-03-11T10:02:31;97879.06;;;20.95;36.19
73692;BME280;61996;49.910;35.562;2023-03-11T10:05:34;97873.31;;;20.98;36.05
73692;BME280;61996;49.910;35.562;2023-03-11T10:08:40;97866.31;;;20.97;36.24
73692;BME280;61996;49.910;35.562;2023-03-11T10:11:47;97864.06;;;20.94;36.42
73692;BME280;61996;49.910;35.562;2023-03-11T10:14:59;97855.00;;;20.95;36.28
73692;BME280;61996;49.910;35.562;2023-03-11T10:21:27;97837.59;;;20.77;36.96
73692;BME280;61996;49.910;35.562;2023-03-11T10:24:47;97838.63;;;20.76;36.88
73692;BME280;61996;49.910;35.562;2023-03-11T10:27:53;97830.63;;;20.76;36.93
73692;BME280;61996;49.910;35.562;2023-03-11T10:31:00;97827.69;;;20.71;37.36
73692;BME280;61996;49.910;35.562;2023-03-11T10:34:11;97828.53;;;20.72;37.10
73692;BME280;61996;49.910;35.562;2023-03-11T10:37:16;97822.34;;;20.71;37.00
73692;BME280;61996;49.910;35.562;2023-03-11T10:40:25;97821.94;;;20.68;37.15
73692;BME280;61996;49.910;35.562;2023-03-11T10:43:30;97813.66;;;20.63;37.18
73692;BME280;61996;49.910;35.562;2023-03-11T10:46:40;97809.16;;;20.63;37.23
73692;BME280;61996;49.910;35.562;2023-03-11T10:49:42;97801.75;;;20.59;37.38
73692;BME280;61996;49.910;35.562;2023-03-11T10:56:05;97795.94;;;20.55;36.86
73692;BME280;61996;49.910;35.562;2023-03-11T10:59:18;97775.16;;;20.50;37.23
73692;BME280;61996;49.910;35.562;2023-03-11T11:02:25;97752.34;;;20.48;37.24
73692;BME280;61996;49.910;35.562;2023-03-11T11:05:29;97760.56;;;20.46;37.34
73692;BME280;61996;49.910;35.562;2023-03-11T11:08:33;97744.13;;;20.49;37.23
73692;BME280;61996;49.910;35.562;2023-03-11T11:11:37;97731.59;;;20.50;37.39
73692;BME280;61996;49.910;35.562;2023-03-11T11:14:43;97732.00;;;20.47;37.37
73692;BME280;61996;49.910;35.562;2023-03-11T11:17:47;97711.47;;;20.47;37.27
73692;BME280;61996;49.910;35.562;2023-03-11T11:20:52;97710.84;;;20.45;37.25
73692;BME280;61996;49.910;35.562;2023-03-11T11:24:03;97712.03;;;20.43;37.30
73692;BME280;61996;49.910;35.562;2023-03-11T11:27:14;97715.72;;;20.42;37.19
73692;BME280;61996;49.910;35.562;2023-03-11T11:30:17;97706.69;;;20.43;37.26
73692;BME280;61996;49.910;35.562;2023-03-11T11:33:23;97707.66;;;20.63;36.69
73692;BME280;61996;49.910;35.562;2023-03-11T11:36:27;97710.34;;;20.63;37.14
73692;BME280;61996;49.910;35.562;2023-03-11T11:39:39;97711.59;;;20.39;37.42
73692;BME280;61996;49.910;35.562;2023-03-11T11:42:54;97712.16;;;20.35;37.53
73692;BME280;61996;49.910;35.562;2023-03-11T11:45:58;97714.03;;;20.34;37.40
73692;BME280;61996;49.910;35.562;2023-03-11T11:49:06;97707.25;;;20.32;37.53
73692;BME280;61996;49.910;35.562;2023-03-11T11:52:15;97701.91;;;20.32;37.32
73692;BME280;61996;49.910;35.562;2023-03-11T11:55:20;97701.25;;;20.30;37.22
73692;BME280;61996;49.910;35.562;2023-03-11T11:58:25;97699.41;;;20.30;37.18
73692;BME280;61996;49.910;35.562;2023-03-11T12:01:32;97683.16;;;20.25;37.37
73692;BME280;61996;49.910;35.562;2023-03-11T12:04:45;97672.84;;;20.22;37.37
73692;BME280;61996;49.910;35.562;2023-03-11T12:07:53;97671.22;;;20.21;37.32
73692;BME280;61996;49.910;35.562;2023-03-11T12:10:59;97657.03;;;20.20;37.23
73692;BME280;61996;49.910;35.562;2023-03-11T12:14:05;97642.06;;;20.19;37.21
73692;BME280;61996;49.910;35.562;2023-03-11T12:17:12;97623.59;;;20.18;37.29
73692;BME280;61996;49.910;35.562;2023-03-11T12:20:29;97622.75;;;20.17;37.27
73692;BME280;61996;49.910;35.562;2023-03-11T12:23:37;97621.28;;;20.15;37.16
73692;BME280;61996;49.910;35.562;2023-03-11T12:26:43;97616.97;;;20.14;37.15
73692;BME280;61996;49.910;35.562;2023-03-11T12:29:51;97621.94;;;20.17;37.20
73692;BME280;61996;49.910;35.562;2023-03-11T12:32:59;97613.94;;;20.17;37.06
73692;BME280;61996;49.910;35.562;2023-03-11T12:36:07;97609.59;;;20.16;37.09
73692;BME280;61996;49.910;35.562;2023-03-11T12:39:22;97606.50;;;20.12;37.31
73692;BME280;61996;49.910;35.562;2023-03-11T12:42:37;97602.59;;;20.15;37.00
73692;BME280;61996;49.910;35.562;2023-03-11T12:45:48;97604.22;;;20.09;37.68
73692;BME280;61996;49.910;35.562;2023-03-11T12:49:04;97589.66;;;20.12;37.65
73692;BME280;61996;49.910;35.562;2023-03-11T12:52:18;97578.53;;;20.08;37.86
73692;BME280;61996;49.910;35.562;2023-03-11T12:55:31;97575.72;;;20.10;37.76
73692;BME280;61996;49.910;35.562;2023-03-11T12:58:50;97581.25;;;20.15;37.87
73692;BME280;61996;49.910;35.562;2023-03-11T13:01:58;97576.38;;;20.18;38.00
73692;BME280;61996;49.910;35.562;2023-03-11T13:05:09;97566.06;;;20.15;38.79
73692;BME280;61996;49.910;35.562;2023-03-11T13:08:17;97568.13;;;20.13;38.83
73692;BME280;61996;49.910;35.562;2023-03-11T13:14:41;97556.81;;;20.11;38.83
73692;BME280;61996;49.910;35.562;2023-03-11T13:17:55;97541.84;;;20.10;38.75
73692;BME280;61996;49.910;35.562;2023-03-11T13:21:03;97535.56;;;20.31;38.09
73692;BME280;61996;49.910;35.562;2023-03-11T13:27:35;97543.06;;;20.14;38.17
73692;BME280;61996;49.910;35.562;2023-03-11T13:30:42;97511.06;;;20.14;39.28
73692;BME280;61996;49.910;35.562;2023-03-11T13:33:50;97518.03;;;20.15;38.93
73692;BME280;61996;49.910;35.562;2023-03-11T13:37:04;97509.00;;;20.16;38.62
73692;BME280;61996;49.910;35.562;2023-03-11T13:40:12;97510.22;;;20.14;38.64
73692;BME280;61996;49.910;35.562;2023-03-11T13:43:19;97506.16;;;20.18;38.38
73692;BME280;61996;49.910;35.562;2023-03-11T13:46:25;97495.28;;;20.19;38.28
73692;BME280;61996;49.910;35.562;2023-03-11T13:49:34;97487.66;;;20.16;38.45
73692;BME280;61996;49.910;35.562;2023-03-11T13:52:41;97493.41;;;20.13;38.51
73692;BME280;61996;49.910;35.562;2023-03-11T13:55:48;97487.44;;;20.11;38.63
73692;BME280;61996;49.910;35.562;2023-03-11T13:58:51;97476.78;;;20.11;38.37
73692;BME280;61996;49.910;35.562;2023-03-11T14:01:56;97476.78;;;20.11;38.42
73692;BME280;61996;49.910;35.562;2023-03-11T14:05:03;97479.22;;;20.13;38.34
73692;BME280;61996;49.910;35.562;2023-03-11T14:08:10;97472.25;;;20.12;38.27
73692;BME280;61996;49.910;35.562;2023-03-11T14:11:14;97473.06;;;20.12;38.28
73692;BME280;61996;49.910;35.562;2023-03-11T14:14:31;97480.63;;;20.09;38.24
73692;BME280;61996;49.910;35.562;2023-03-11T14:17:36;97469.78;;;20.10;38.18
73692;BME280;61996;49.910;35.562;2023-03-11T14:20:50;97468.31;;;20.08;38.20
73692;BME280;61996;49.910;35.562;2023-03-11T14:23:53;97469.97;;;20.09;37.99
73692;BME280;61996;49.910;35.562;2023-03-11T14:26:57;97454.16;;;20.07;38.17
73692;BME280;61996;49.910;35.562;2023-03-11T14:30:01;97469.16;;;20.08;38.11
73692;BME280;61996;49.910;35.562;2023-03-11T14:33:05;97464.06;;;20.20;37.46
73692;BME280;61996;49.910;35.562;2023-03-11T14:36:10;97465.13;;;20.25;37.02
73692;BME280;61996;49.910;35.562;2023-03-11T14:39:23;97457.69;;;20.14;38.09
73692;BME280;61996;49.910;35.562;2023-03-11T14:42:27;97459.72;;;20.12;38.15
73692;BME280;61996;49.910;35.562;2023-03-11T14:45:30;97466.50;;;20.15;38.14
73692;BME280;61996;49.910;35.562;2023-03-11T14:48:35;97461.22;;;20.28;38.25
73692;BME280;61996;49.910;35.562;2023-03-11T14:51:40;97457.28;;;20.11;38.49
73692;BME280;61996;49.910;35.562;2023-03-11T14:54:43;97462.41;;;20.12;38.37
73692;BME280;61996;49.910;35.562;2023-03-11T14:57:47;97454.41;;;20.12;38.54
73692;BME280;61996;49.910;35.562;2023-03-11T15:00:52;97459.53;;;20.14;38.51
73692;BME280;61996;49.910;35.562;2023-03-11T15:04:00;97458.28;;;20.10;38.64
73692;BME280;61996;49.910;35.562;2023-03-11T15:07:09;97462.16;;;20.07;38.86
73692;BME280;61996;49.910;35.562;2023-03-11T15:10:13;97452.75;;;20.11;38.38
73692;BME280;61996;49.910;35.562;2023-03-11T15:13:16;97446.63;;;20.17;40.29
73692;BME280;61996;49.910;35.562;2023-03-11T15:16:28;97449.91;;;20.19;41.13
73692;BME280;61996;49.910;35.562;2023-03-11T15:19:32;97444.97;;;20.23;39.83
73692;BME280;61996;49.910;35.562;2023-03-11T15:22:37;97454.84;;;20.22;40.45
73692;BME280;61996;49.910;35.562;2023-03-11T15:25:46;97456.88;;;20.20;39.90
73692;BME280;61996;49.910;35.562;2023-03-11T15:28:53;97453.59;;;20.18;40.33
73692;BME280;61996;49.910;35.562;2023-03-11T15:31:57;97448.25;;;20.12;40.24
73692;BME280;61996;49.910;35.562;2023-03-11T15:35:02;97449.06;;;20.12;40.08
73692;BME280;61996;49.910;35.562;2023-03-11T15:38:18;97459.31;;;20.15;39.80
73692;BME280;61996;49.910;35.562;2023-03-11T15:41:24;97458.31;;;20.23;39.93
73692;BME280;61996;49.910;35.562;2023-03-11T15:44:27;97458.16;;;20.31;39.46
73692;BME280;61996;49.910;35.562;2023-03-11T15:47:31;97459.56;;;20.27;39.75
73692;BME280;61996;49.910;35.562;2023-03-11T15:50:44;97453.63;;;20.25;39.71
73692;BME280;61996;49.910;35.562;2023-03-11T15:53:55;97440.56;;;19.89;40.40
73692;BME280;61996;49.910;35.562;2023-03-11T15:56:58;97439.22;;;20.19;39.79
73692;BME280;61996;49.910;35.562;2023-03-11T16:00:03;97448.06;;;20.20;39.95
73692;BME280;61996;49.910;35.562;2023-03-11T16:03:07;97444.16;;;20.22;39.16
73692;BME280;61996;49.910;35.562;2023-03-11T16:06:12;97452.56;;;20.19;40.49
73692;BME280;61996;49.910;35.562;2023-03-11T16:09:18;97453.81;;;20.17;40.16
73692;BME280;61996;49.910;35.562;2023-03-11T16:12:22;97451.31;;;20.15;40.05
73692;BME280;61996;49.910;35.562;2023-03-11T16:15:26;97452.34;;;20.14;39.84
73692;BME280;61996;49.910;35.562;2023-03-11T16:18:30;97450.69;;;20.13;39.84
73692;BME280;61996;49.910;35.562;2023-03-11T16:21:34;97443.72;;;20.12;39.72
73692;BME280;61996;49.910;35.562;2023-03-11T16:24:42;97435.50;;;20.14;39.58